createdAt,value
2019-03-01T00:00:11.993Z,1009.48
2019-03-01T00:01:11.962Z,1009.50
2019-03-01T00:02:11.963Z,1009.45
2019-03-01T00:03:11.914Z,1009.44
2019-03-01T00:04:11.972Z,1009.45
2019-03-01T00:05:11.873Z,1009.37
2019-03-01T00:06:11.832Z,1009.47
2019-03-01T00:07:11.810Z,1009.41
2019-03-01T00:08:11.893Z,1009.42
2019-03-01T00:09:11.764Z,1009.41
2019-03-01T00:10:11.811Z,1009.38
2019-03-01T00:11:11.714Z,1009.42
2019-03-01T00:12:11.734Z,1009.39
2019-03-01T00:13:11.663Z,1009.42
2019-03-01T00:14:11.744Z,1009.36
2019-03-01T00:15:11.602Z,1009.38
2019-03-01T00:16:11.658Z,1009.41
2019-03-01T00:17:11.649Z,1009.34
2019-03-01T00:18:11.591Z,1009.34
2019-03-01T00:19:11.554Z,1009.37
2019-03-01T00:20:11.507Z,1009.35
2019-03-01T00:21:11.465Z,1009.38
2019-03-01T00:22:11.415Z,1009.37
2019-03-01T00:23:11.384Z,1009.35
2019-03-01T00:24:11.390Z,1009.32
2019-03-01T00:25:11.333Z,1009.29
2019-03-01T00:26:11.402Z,1009.36
2019-03-01T00:27:11.283Z,1009.32
2019-03-01T00:28:11.253Z,1009.32
2019-03-01T00:29:11.235Z,1009.23
2019-03-01T00:30:11.313Z,1009.22
2019-03-01T00:31:11.182Z,1009.24
2019-03-01T00:32:11.225Z,1009.21
2019-03-01T00:33:11.126Z,1009.19
2019-03-01T00:34:11.104Z,1009.18
2019-03-01T00:35:11.155Z,1009.16
2019-03-01T00:36:11.073Z,1009.17
2019-03-01T00:37:11.053Z,1009.12
2019-03-01T00:38:10.993Z,1009.15
2019-03-01T00:39:10.984Z,1009.13
2019-03-01T00:40:10.943Z,1009.11
2019-03-01T00:41:10.972Z,1009.14
2019-03-01T00:42:10.893Z,1009.11
2019-03-01T00:43:10.883Z,1009.13
2019-03-01T00:44:10.835Z,1009.08
2019-03-01T00:45:10.829Z,1009.05
2019-03-01T00:46:10.808Z,1009.07
2019-03-01T00:47:10.756Z,1009.03
2019-03-01T00:48:10.812Z,1009.04
2019-03-01T00:49:10.703Z,1009.07
2019-03-01T00:50:10.679Z,1009.07
2019-03-01T00:51:10.670Z,1009.01
2019-03-01T00:52:10.631Z,1008.99
2019-03-01T00:53:10.617Z,1008.98
2019-03-01T00:54:10.653Z,1009.00
2019-03-01T00:55:10.544Z,1008.95
2019-03-01T00:56:10.513Z,1008.98
2019-03-01T00:57:10.565Z,1008.97
2019-03-01T00:58:10.467Z,1008.94
2019-03-01T00:59:10.471Z,1008.92
2019-03-01T01:00:10.412Z,1008.93
2019-03-01T01:01:10.492Z,1008.93
2019-03-01T01:02:10.361Z,1008.94
2019-03-01T01:03:10.404Z,1008.90
2019-03-01T01:04:10.302Z,1008.90
2019-03-01T01:05:10.313Z,1008.88
2019-03-01T01:06:10.252Z,1008.88
2019-03-01T01:07:10.236Z,1008.84
2019-03-01T01:08:10.213Z,1008.84
2019-03-01T01:09:10.233Z,1008.83
2019-03-01T01:10:10.142Z,1008.80
2019-03-01T01:11:10.243Z,1008.76
2019-03-01T01:12:10.106Z,1008.80
2019-03-01T01:13:10.073Z,1008.80
2019-03-01T01:14:10.055Z,1008.75
2019-03-01T01:15:10.023Z,1008.81
2019-03-01T01:16:10.101Z,1008.77
2019-03-01T01:17:09.963Z,1008.77
2019-03-01T01:18:09.931Z,1008.77
2019-03-01T01:19:09.927Z,1008.77
2019-03-01T01:20:09.992Z,1008.75
2019-03-01T01:21:09.850Z,1008.79
2019-03-01T01:22:09.903Z,1008.76
2019-03-01T01:23:09.802Z,1008.75
2019-03-01T01:24:09.781Z,1008.74
2019-03-01T01:25:09.761Z,1008.71
2019-03-01T01:26:09.833Z,1008.73
2019-03-01T01:27:09.704Z,1008.67
2019-03-01T01:28:09.744Z,1008.67
2019-03-01T01:29:09.651Z,1008.68
2019-03-01T01:30:09.643Z,1008.63
2019-03-01T01:31:09.591Z,1008.61
2019-03-01T01:32:09.677Z,1008.61
2019-03-01T01:33:09.544Z,1008.61
2019-03-01T01:34:09.571Z,1008.58
2019-03-01T01:35:09.576Z,1008.59
2019-03-01T01:36:09.470Z,1008.57
2019-03-01T01:37:09.486Z,1008.56
2019-03-01T01:38:09.411Z,1008.63
2019-03-01T01:39:09.501Z,1008.55
2019-03-01T01:40:09.364Z,1008.60
2019-03-01T01:41:09.330Z,1008.61
2019-03-01T01:42:09.412Z,1008.60
2019-03-01T01:43:09.292Z,1008.51
2019-03-01T01:44:09.321Z,1008.54
2019-03-01T01:45:09.220Z,1008.50
2019-03-01T01:46:09.211Z,1008.50
2019-03-01T01:47:09.183Z,1008.46
2019-03-01T01:48:09.251Z,1008.47
2019-03-01T01:49:09.132Z,1008.50
2019-03-01T01:50:09.164Z,1008.49
2019-03-01T01:51:09.074Z,1008.47
2019-03-01T01:52:09.073Z,1008.52
2019-03-01T01:53:09.026Z,1008.46
2019-03-01T01:54:09.083Z,1008.47
2019-03-01T01:55:08.974Z,1008.45
2019-03-01T01:56:08.997Z,1008.47
2019-03-01T01:57:08.992Z,1008.42
2019-03-01T01:58:08.895Z,1008.46
2019-03-01T01:59:08.902Z,1008.44
2019-03-01T02:00:08.830Z,1008.43
2019-03-01T02:01:08.920Z,1008.44
2019-03-01T02:02:08.773Z,1008.43
2019-03-01T02:03:08.755Z,1008.45
2019-03-01T02:04:08.829Z,1008.41
2019-03-01T02:05:08.701Z,1008.44
2019-03-01T02:06:08.748Z,1008.36
2019-03-01T02:07:08.653Z,1008.40
2019-03-01T02:08:08.613Z,1008.41
2019-03-01T02:09:08.591Z,1008.39
2019-03-01T02:10:08.688Z,1008.41
2019-03-01T02:11:08.546Z,1008.39
2019-03-01T02:12:08.583Z,1008.37
2019-03-01T02:13:08.495Z,1008.37
2019-03-01T02:14:08.460Z,1008.35
2019-03-01T02:15:08.491Z,1008.35
2019-03-01T02:16:08.403Z,1008.39
2019-03-01T02:17:08.403Z,1008.36
2019-03-01T02:18:08.351Z,1008.30
2019-03-01T02:19:08.332Z,1008.33
2019-03-01T02:20:08.312Z,1008.30
2019-03-01T02:21:08.331Z,1008.29
2019-03-01T02:22:08.244Z,1008.28
2019-03-01T02:23:08.243Z,1008.31
2019-03-01T02:24:08.192Z,1008.24
2019-03-01T02:25:08.163Z,1008.24
2019-03-01T02:26:08.255Z,1008.23
2019-03-01T02:27:08.141Z,1008.21
2019-03-01T02:28:08.170Z,1008.21
2019-03-01T02:29:08.063Z,1008.20
2019-03-01T02:30:08.095Z,1008.23
2019-03-01T02:31:08.011Z,1008.22
2019-03-01T02:32:08.093Z,1008.24
2019-03-01T02:33:07.965Z,1008.20
2019-03-01T02:34:08.015Z,1008.19
2019-03-01T02:35:07.903Z,1008.17
2019-03-01T02:36:07.874Z,1008.16
2019-03-01T02:37:07.920Z,1008.15
2019-03-01T02:38:07.826Z,1008.15
2019-03-01T02:39:07.833Z,1008.18
2019-03-01T02:40:07.772Z,1008.20
2019-03-01T02:41:07.842Z,1008.11
2019-03-01T02:42:07.732Z,1008.11
2019-03-01T02:43:07.753Z,1008.08
2019-03-01T02:44:07.660Z,1008.02
2019-03-01T02:45:07.672Z,1008.08
2019-03-01T02:46:07.611Z,1008.05
2019-03-01T02:47:07.587Z,1008.02
2019-03-01T02:48:07.592Z,1007.99
2019-03-01T02:49:07.592Z,1008.01
2019-03-01T02:50:07.500Z,1008.03
2019-03-01T02:51:07.595Z,1008.05
2019-03-01T02:52:07.466Z,1007.99
2019-03-01T02:53:07.430Z,1007.98
2019-03-01T02:54:07.525Z,1007.97
2019-03-01T02:55:07.373Z,1007.98
2019-03-01T02:56:07.426Z,1007.94
2019-03-01T02:57:07.331Z,1007.98
2019-03-01T02:58:07.302Z,1007.99
2019-03-01T02:59:07.271Z,1007.99
2019-03-01T03:00:07.369Z,1007.96
2019-03-01T03:01:07.211Z,1007.95
2019-03-01T03:02:07.266Z,1007.96
2019-03-01T03:03:07.163Z,1007.94
2019-03-01T03:04:07.130Z,1007.94
2019-03-01T03:05:07.111Z,1007.97
2019-03-01T03:06:07.185Z,1007.95
2019-03-01T03:07:07.058Z,1007.97
2019-03-01T03:08:07.091Z,1007.96
2019-03-01T03:09:07.001Z,1007.94
2019-03-01T03:10:07.002Z,1007.94
2019-03-01T03:11:06.953Z,1007.98
2019-03-01T03:12:07.046Z,1007.95
2019-03-01T03:13:06.897Z,1007.96
2019-03-01T03:14:06.925Z,1007.93
2019-03-01T03:15:06.932Z,1007.92
2019-03-01T03:16:06.821Z,1007.90
2019-03-01T03:17:06.843Z,1007.92
2019-03-01T03:18:06.763Z,1007.92
2019-03-01T03:19:06.863Z,1007.87
2019-03-01T03:20:06.712Z,1007.90
2019-03-01T03:21:06.762Z,1007.89
2019-03-01T03:22:06.660Z,1007.92
2019-03-01T03:23:06.690Z,1007.89
2019-03-01T03:24:06.601Z,1007.91
2019-03-01T03:25:06.685Z,1007.92
2019-03-01T03:26:06.584Z,1007.89
2019-03-01T03:27:06.536Z,1007.91
2019-03-01T03:28:06.601Z,1007.91
2019-03-01T03:29:06.479Z,1007.88
2019-03-01T03:30:06.529Z,1007.84
2019-03-01T03:31:06.429Z,1007.90
2019-03-01T03:32:06.392Z,1007.86
2019-03-01T03:33:06.427Z,1007.89
2019-03-01T03:34:06.333Z,1007.85
2019-03-01T03:35:06.345Z,1007.83
2019-03-01T03:36:06.285Z,1007.86
2019-03-01T03:37:06.252Z,1007.82
2019-03-01T03:38:06.233Z,1007.86
2019-03-01T03:39:06.263Z,1007.79
2019-03-01T03:40:06.172Z,1007.81
2019-03-01T03:41:06.173Z,1007.82
2019-03-01T03:42:06.131Z,1007.82
2019-03-01T03:43:06.102Z,1007.80
2019-03-01T03:44:06.083Z,1007.78
2019-03-01T03:45:06.046Z,1007.79
2019-03-01T03:46:06.092Z,1007.80
2019-03-01T03:47:05.998Z,1007.79
2019-03-01T03:48:05.962Z,1007.81
2019-03-01T03:49:05.944Z,1007.83
2019-03-01T03:50:06.027Z,1007.81
2019-03-01T03:51:05.897Z,1007.76
2019-03-01T03:52:05.932Z,1007.82
2019-03-01T03:53:05.833Z,1007.80
2019-03-01T03:54:05.802Z,1007.81
2019-03-01T03:55:05.853Z,1007.76
2019-03-01T03:56:05.759Z,1007.75
2019-03-01T03:57:05.763Z,1007.75
2019-03-01T03:58:05.710Z,1007.78
2019-03-01T03:59:05.775Z,1007.76
2019-03-01T04:00:05.643Z,1007.73
2019-03-01T04:01:05.687Z,1007.77
2019-03-01T04:02:05.592Z,1007.84
2019-03-01T04:03:05.595Z,1007.78
2019-03-01T04:04:05.543Z,1007.77
2019-03-01T04:05:05.526Z,1007.78
2019-03-01T04:06:05.487Z,1007.77
2019-03-01T04:07:05.517Z,1007.79
2019-03-01T04:08:05.436Z,1007.80
2019-03-01T04:09:06.443Z,1007.80
2019-03-01T04:10:05.385Z,1007.80
2019-03-01T04:11:05.366Z,1007.82
2019-03-01T04:12:05.446Z,1007.82
2019-03-01T04:13:05.305Z,1007.81
2019-03-01T04:14:05.354Z,1007.80
2019-03-01T04:15:05.253Z,1007.75
2019-03-01T04:16:05.225Z,1007.80
2019-03-01T04:17:05.203Z,1007.78
2019-03-01T04:18:05.286Z,1007.80
2019-03-01T04:19:05.159Z,1007.80
2019-03-01T04:20:05.186Z,1007.76
2019-03-01T04:21:05.096Z,1007.82
2019-03-01T04:22:05.062Z,1007.78
2019-03-01T04:23:05.107Z,1007.78
2019-03-01T04:24:05.022Z,1007.80
2019-03-01T04:25:05.015Z,1007.80
2019-03-01T04:26:04.962Z,1007.80
2019-03-01T04:27:04.934Z,1007.75
2019-03-01T04:28:04.909Z,1007.75
2019-03-01T04:29:04.943Z,1007.75
2019-03-01T04:30:04.852Z,1007.76
2019-03-01T04:31:04.863Z,1007.77
2019-03-01T04:32:04.806Z,1007.79
2019-03-01T04:33:04.782Z,1007.80
2019-03-01T04:34:06.049Z,1007.81
2019-03-01T04:35:04.731Z,1007.78
2019-03-01T04:36:04.773Z,1007.78
2019-03-01T04:37:04.672Z,1007.77
2019-03-01T04:38:04.643Z,1007.80
2019-03-01T04:39:04.636Z,1007.84
2019-03-01T04:40:06.696Z,1007.79
2019-03-01T04:41:04.565Z,1007.80
2019-03-01T04:42:04.601Z,1007.81
2019-03-01T04:43:04.512Z,1007.76
2019-03-01T04:44:04.481Z,1007.77
2019-03-01T04:45:04.453Z,1007.77
2019-03-01T04:46:04.531Z,1007.76
2019-03-01T04:47:04.403Z,1007.81
2019-03-01T04:48:04.452Z,1007.77
2019-03-01T04:49:04.352Z,1007.81
2019-03-01T04:50:04.323Z,1007.80
2019-03-01T04:51:04.352Z,1007.83
2019-03-01T04:52:04.271Z,1007.79
2019-03-01T04:53:04.263Z,1007.81
2019-03-01T04:54:04.223Z,1007.78
2019-03-01T04:55:04.205Z,1007.79
2019-03-01T04:56:04.162Z,1007.79
2019-03-01T04:57:04.190Z,1007.77
2019-03-01T04:58:04.114Z,1007.81
2019-03-01T04:59:04.203Z,1007.72
2019-03-01T05:00:04.063Z,1007.79
2019-03-01T05:01:04.032Z,1007.76
2019-03-01T05:02:04.116Z,1007.73
2019-03-01T05:03:03.981Z,1007.73
2019-03-01T05:04:04.034Z,1007.75
2019-03-01T05:05:03.926Z,1007.79
2019-03-01T05:06:03.905Z,1007.77
2019-03-01T05:07:03.872Z,1007.81
2019-03-01T05:08:03.952Z,1007.82
2019-03-01T05:09:03.823Z,1007.80
2019-03-01T05:10:03.863Z,1007.82
2019-03-01T05:11:03.763Z,1007.82
2019-03-01T05:12:03.733Z,1007.89
2019-03-01T05:13:03.773Z,1007.85
2019-03-01T05:14:03.702Z,1007.87
2019-03-01T05:15:03.682Z,1007.89
2019-03-01T05:16:03.633Z,1007.90
2019-03-01T05:17:03.610Z,1007.87
2019-03-01T05:18:03.592Z,1007.90
2019-03-01T05:19:03.613Z,1007.86
2019-03-01T05:20:03.533Z,1007.92
2019-03-01T05:21:03.521Z,1007.96
2019-03-01T05:22:03.487Z,1007.90
2019-03-01T05:23:03.458Z,1007.96
2019-03-01T05:24:03.442Z,1007.94
2019-03-01T05:25:03.392Z,1007.96
2019-03-01T05:26:03.455Z,1008.01
2019-03-01T05:27:03.345Z,1008.02
2019-03-01T05:28:03.324Z,1007.98
2019-03-01T05:29:03.295Z,1008.03
2019-03-01T05:30:03.376Z,1008.00
2019-03-01T05:31:03.256Z,1008.03
2019-03-01T05:32:03.279Z,1008.03
2019-03-01T05:33:03.189Z,1008.03
2019-03-01T05:34:03.162Z,1008.04
2019-03-01T05:35:10.967Z,1008.06
2019-03-01T05:37:07.184Z,1008.08
2019-03-01T05:38:07.095Z,1008.03
2019-03-01T05:39:07.161Z,1008.11
2019-03-01T05:40:07.042Z,1008.11
2019-03-01T05:41:07.062Z,1008.10
2019-03-01T05:42:06.984Z,1008.18
2019-03-01T05:43:06.980Z,1008.14
2019-03-01T05:44:06.930Z,1008.16
2019-03-01T05:45:06.900Z,1008.19
2019-03-01T05:46:06.881Z,1008.19
2019-03-01T05:47:06.901Z,1008.20
2019-03-01T05:48:06.825Z,1008.16
2019-03-01T05:49:06.910Z,1008.20
2019-03-01T05:50:07.132Z,1008.17
2019-03-01T05:51:06.760Z,1008.17
2019-03-01T05:52:06.828Z,1008.22
2019-03-01T05:53:06.702Z,1008.21
2019-03-01T05:54:06.753Z,1008.19
2019-03-01T05:55:06.643Z,1008.19
2019-03-01T05:56:06.611Z,1008.22
2019-03-01T05:57:06.581Z,1008.21
2019-03-01T05:58:16.073Z,1008.21
2019-03-01T05:59:07.176Z,1008.25
2019-03-01T06:00:06.569Z,1008.22
2019-03-01T06:01:06.484Z,1008.20
2019-03-01T06:02:06.467Z,1008.25
2019-03-01T06:03:06.504Z,1008.26
2019-03-01T06:04:06.401Z,1008.29
2019-03-01T06:05:06.402Z,1008.31
2019-03-01T06:06:06.351Z,1008.30
2019-03-01T06:07:06.338Z,1008.32
2019-03-01T06:08:06.290Z,1008.30
2019-03-01T06:09:06.320Z,1008.32
2019-03-01T06:10:06.240Z,1008.33
2019-03-01T06:11:06.229Z,1008.35
2019-03-01T06:12:06.189Z,1008.36
2019-03-01T06:13:06.172Z,1008.38
2019-03-01T06:14:06.257Z,1008.42
2019-03-01T06:15:06.111Z,1008.40
2019-03-01T06:16:06.160Z,1008.44
2019-03-01T06:17:06.061Z,1008.42
2019-03-01T06:18:06.031Z,1008.45
2019-03-01T06:19:06.011Z,1008.49
2019-03-01T06:20:06.091Z,1008.50
2019-03-01T06:21:05.949Z,1008.53
2019-03-01T06:22:05.995Z,1008.55
2019-03-01T06:23:05.899Z,1008.56
2019-03-01T06:24:05.869Z,1008.59
2019-03-01T06:25:05.929Z,1008.58
2019-03-01T06:26:05.820Z,1008.66
2019-03-01T06:27:05.821Z,1008.63
2019-03-01T06:28:05.771Z,1008.64
2019-03-01T06:29:05.830Z,1008.68
2019-03-01T06:30:05.711Z,1008.73
2019-03-01T06:31:05.742Z,1008.67
2019-03-01T06:32:05.664Z,1008.71
2019-03-01T06:33:05.749Z,1008.72
2019-03-01T06:34:05.621Z,1008.67
2019-03-01T06:35:05.580Z,1008.70
2019-03-01T06:36:05.572Z,1008.79
2019-03-01T06:37:05.543Z,1008.71
2019-03-01T06:38:05.583Z,1008.76
2019-03-01T06:39:05.483Z,1008.75
2019-03-01T06:40:05.490Z,1008.76
2019-03-01T06:41:05.432Z,1008.78
2019-03-01T06:42:05.499Z,1008.77
2019-03-01T06:43:05.374Z,1008.78
2019-03-01T06:44:05.412Z,1008.79
2019-03-01T06:45:05.322Z,1008.81
2019-03-01T06:46:05.305Z,1008.85
2019-03-01T06:47:05.271Z,1008.82
2019-03-01T06:48:05.346Z,1008.80
2019-03-01T06:49:05.213Z,1008.84
2019-03-01T06:50:05.262Z,1008.83
2019-03-01T06:51:05.162Z,1008.86
2019-03-01T06:52:05.129Z,1008.84
2019-03-01T06:53:05.174Z,1008.89
2019-03-01T06:54:05.079Z,1008.84
2019-03-01T06:55:05.071Z,1008.90
2019-03-01T06:56:06.806Z,1008.88
2019-03-01T06:57:05.002Z,1008.92
2019-03-01T06:58:05.000Z,1008.89
2019-03-01T06:59:04.990Z,1008.89
2019-03-01T07:00:04.921Z,1008.93
2019-03-01T07:01:04.912Z,1008.95
2019-03-01T07:02:04.870Z,1008.94
2019-03-01T07:03:04.841Z,1008.90
2019-03-01T07:04:04.924Z,1008.98
2019-03-01T07:05:04.793Z,1008.94
2019-03-01T07:06:04.830Z,1008.97
2019-03-01T07:07:04.730Z,1008.97
2019-03-01T07:08:04.740Z,1008.98
2019-03-01T07:09:04.680Z,1009.01
2019-03-01T07:10:04.765Z,1009.00
2019-03-01T07:11:04.630Z,1009.05
2019-03-01T07:12:04.671Z,1009.04
2019-03-01T07:13:04.571Z,1009.05
2019-03-01T07:14:04.553Z,1009.10
2019-03-01T07:15:07.054Z,1009.12
2019-03-01T07:16:04.588Z,1009.13
2019-03-01T07:17:04.469Z,1009.10
2019-03-01T07:18:04.501Z,1009.07
2019-03-01T07:19:04.416Z,1009.13
2019-03-01T07:20:04.480Z,1009.16
2019-03-01T07:21:04.373Z,1009.26
2019-03-01T07:22:04.508Z,1009.23
2019-03-01T07:23:04.315Z,1009.23
2019-03-01T07:24:04.474Z,1009.26
2019-03-01T07:25:04.251Z,1009.23
2019-03-01T07:26:04.312Z,1009.25
2019-03-01T07:27:04.202Z,1009.31
2019-03-01T07:28:04.323Z,1009.34
2019-03-01T07:29:04.151Z,1009.32
2019-03-01T07:30:04.131Z,1009.37
2019-03-01T07:31:04.093Z,1009.37
2019-03-01T07:32:04.272Z,1009.36
2019-03-01T07:33:04.040Z,1009.37
2019-03-01T07:34:04.174Z,1009.37
2019-03-01T07:35:03.980Z,1009.35
2019-03-01T07:36:03.962Z,1009.36
2019-03-01T07:37:03.936Z,1009.41
2019-03-01T07:38:03.993Z,1009.45
2019-03-01T07:39:03.880Z,1009.47
2019-03-01T07:40:03.902Z,1009.52
2019-03-01T07:41:03.919Z,1009.55
2019-03-01T07:42:03.802Z,1009.52
2019-03-01T07:43:03.836Z,1009.58
2019-03-01T07:44:03.739Z,1009.60
2019-03-01T07:45:03.731Z,1009.62
2019-03-01T07:46:03.696Z,1009.65
2019-03-01T07:47:03.661Z,1009.65
2019-03-01T07:48:03.749Z,1009.63
2019-03-01T07:49:03.610Z,1009.65
2019-03-01T07:50:03.672Z,1009.65
2019-03-01T07:51:03.562Z,1009.68
2019-03-01T07:52:04.990Z,1009.69
2019-03-01T07:53:04.614Z,1009.64
2019-03-01T07:54:03.588Z,1009.67
2019-03-01T07:55:03.443Z,1009.63
2019-03-01T07:56:04.211Z,1009.72
2019-03-01T07:57:03.390Z,1009.73
2019-03-01T07:58:03.415Z,1009.78
2019-03-01T07:59:03.343Z,1009.74
2019-03-01T08:00:03.425Z,1009.75
2019-03-01T08:01:03.283Z,1009.72
2019-03-01T08:02:04.071Z,1009.73
2019-03-01T08:03:03.231Z,1009.77
2019-03-01T08:04:03.253Z,1009.79
2019-03-01T08:05:04.224Z,1009.82
2019-03-01T08:06:03.165Z,1009.84
2019-03-01T08:07:03.122Z,1009.95
2019-03-01T08:08:03.778Z,1010.01
2019-03-01T08:09:03.063Z,1009.95
2019-03-01T08:10:03.092Z,1010.01
2019-03-01T08:11:03.022Z,1009.97
2019-03-01T08:12:03.653Z,1010.00
2019-03-01T08:13:02.962Z,1009.95
2019-03-01T08:14:02.943Z,1009.97
2019-03-01T08:15:04.068Z,1010.00
2019-03-01T08:16:02.881Z,1010.06
2019-03-01T08:17:03.634Z,1010.00
2019-03-01T08:18:04.775Z,1010.01
2019-03-01T08:19:02.805Z,1010.09
2019-03-01T08:20:02.773Z,1010.11
2019-03-01T08:21:06.073Z,1010.10
2019-03-01T08:22:02.712Z,1010.17
2019-03-01T08:23:02.774Z,1010.21
2019-03-01T08:24:02.660Z,1010.20
2019-03-01T08:25:02.750Z,1010.21
2019-03-01T08:26:03.488Z,1010.25
2019-03-01T08:27:06.455Z,1010.26
2019-03-01T08:28:02.551Z,1010.24
2019-03-01T08:29:02.611Z,1010.26
2019-03-01T08:30:02.510Z,1010.30
2019-03-01T08:31:02.472Z,1010.31
2019-03-01T08:32:02.522Z,1010.32
2019-03-01T08:33:02.713Z,1010.33
2019-03-01T08:34:02.460Z,1010.37
2019-03-01T08:35:02.365Z,1010.40
2019-03-01T08:36:05.426Z,1010.43
2019-03-01T08:37:02.309Z,1010.41
2019-03-01T08:38:02.367Z,1010.41
2019-03-01T08:39:04.927Z,1010.43
2019-03-01T08:40:02.277Z,1010.41
2019-03-01T08:41:02.204Z,1010.41
2019-03-01T08:42:02.192Z,1010.44
2019-03-01T08:43:02.140Z,1010.45
2019-03-01T08:44:02.201Z,1010.45
2019-03-01T08:45:02.803Z,1010.47
2019-03-01T08:46:05.336Z,1010.45
2019-03-01T08:47:02.127Z,1010.45
2019-03-01T08:48:02.069Z,1010.47
2019-03-01T08:49:02.035Z,1010.47
2019-03-01T08:50:01.950Z,1010.48
2019-03-01T08:51:01.942Z,1010.53
2019-03-01T08:52:02.416Z,1010.54
2019-03-01T08:53:01.963Z,1010.55
2019-03-01T08:54:01.843Z,1010.55
2019-03-01T08:55:03.631Z,1010.52
2019-03-01T08:56:01.803Z,1010.59
2019-03-01T08:57:01.768Z,1010.61
2019-03-01T08:58:03.370Z,1010.58
2019-03-01T08:59:01.793Z,1010.59
2019-03-01T09:00:02.418Z,1010.61
2019-03-01T09:01:04.023Z,1010.62
2019-03-01T09:02:01.644Z,1010.59
2019-03-01T09:03:01.621Z,1010.63
2019-03-01T09:04:01.582Z,1010.65
2019-03-01T09:05:01.726Z,1010.61
2019-03-01T09:06:01.532Z,1010.69
2019-03-01T09:07:01.646Z,1010.68
2019-03-01T09:08:01.461Z,1010.68
2019-03-01T09:09:01.454Z,1010.70
2019-03-01T09:10:01.415Z,1010.74
2019-03-01T09:11:01.473Z,1010.66
2019-03-01T09:12:01.372Z,1010.70
2019-03-01T09:13:01.331Z,1010.70
2019-03-01T09:14:01.301Z,1010.71
2019-03-01T09:15:04.478Z,1010.73
2019-03-01T09:16:01.254Z,1010.78
2019-03-01T09:17:01.311Z,1010.77
2019-03-01T09:18:01.203Z,1010.81
2019-03-01T09:19:01.164Z,1010.77
2019-03-01T09:20:01.334Z,1010.82
2019-03-01T09:21:05.640Z,1010.86
2019-03-01T09:22:01.141Z,1010.85
2019-03-01T09:23:04.910Z,1010.89
2019-03-01T09:24:01.031Z,1010.88
2019-03-01T09:25:02.523Z,1010.92
2019-03-01T09:26:00.974Z,1010.87
2019-03-01T09:27:01.072Z,1010.84
2019-03-01T09:28:00.922Z,1010.89
2019-03-01T09:29:00.889Z,1010.86
2019-03-01T09:30:03.655Z,1010.90
2019-03-01T09:31:00.929Z,1010.91
2019-03-01T09:32:00.811Z,1010.91
2019-03-01T09:33:00.813Z,1010.93
2019-03-01T09:34:00.762Z,1010.95
2019-03-01T09:35:00.942Z,1010.97
2019-03-01T09:36:00.727Z,1011.02
2019-03-01T09:37:00.682Z,1011.02
2019-03-01T09:38:00.745Z,1011.04
2019-03-01T09:39:00.620Z,1011.04
2019-03-01T09:40:05.523Z,1011.07
2019-03-01T09:41:01.313Z,1011.07
2019-03-01T09:42:04.391Z,1011.11
2019-03-01T09:43:01.129Z,1011.09
2019-03-01T09:44:02.973Z,1011.11
2019-03-01T09:45:00.475Z,1011.12
2019-03-01T09:46:00.432Z,1011.16
2019-03-01T09:47:01.627Z,1011.15
2019-03-01T09:48:00.372Z,1011.18
2019-03-01T09:49:00.410Z,1011.16
2019-03-01T09:50:01.221Z,1011.18
2019-03-01T09:51:00.294Z,1011.19
2019-03-01T09:52:00.272Z,1011.24
2019-03-01T09:53:00.341Z,1011.22
2019-03-01T09:54:00.222Z,1011.26
2019-03-01T09:55:00.243Z,1011.27
2019-03-01T09:56:00.242Z,1011.30
2019-03-01T09:57:00.162Z,1011.31
2019-03-01T09:58:00.103Z,1011.32
2019-03-01T09:59:00.169Z,1011.36
2019-03-01T10:00:00.058Z,1011.37
2019-03-01T10:01:00.085Z,1011.41
2019-03-01T10:01:59.991Z,1011.47
2019-03-01T10:02:59.993Z,1011.52
2019-03-01T10:03:59.946Z,1011.51
2019-03-01T10:05:00.012Z,1011.44
2019-03-01T10:05:59.892Z,1011.51
2019-03-01T10:06:59.862Z,1011.53
2019-03-01T10:07:59.830Z,1011.51
2019-03-01T10:08:59.831Z,1011.55
2019-03-01T10:09:59.784Z,1011.54
2019-03-01T10:10:59.855Z,1011.55
2019-03-01T10:11:59.742Z,1011.59
2019-03-01T10:12:59.702Z,1011.63
2019-03-01T10:13:59.762Z,1011.63
2019-03-01T10:14:59.639Z,1011.63
2019-03-01T10:15:59.681Z,1011.64
2019-03-01T10:16:59.592Z,1011.63
2019-03-01T10:17:59.560Z,1011.66
2019-03-01T10:18:59.541Z,1011.65
2019-03-01T10:19:59.601Z,1011.65
2019-03-01T10:20:59.480Z,1011.68
2019-03-01T10:21:59.510Z,1011.67
2019-03-01T10:22:59.433Z,1011.68
2019-03-01T10:23:59.438Z,1011.72
2019-03-01T10:24:59.379Z,1011.70
2019-03-01T10:25:59.441Z,1011.72
2019-03-01T10:26:59.321Z,1011.69
2019-03-01T10:27:59.351Z,1011.71
2019-03-01T10:28:59.259Z,1011.73
2019-03-01T10:29:59.259Z,1011.76
2019-03-01T10:30:59.211Z,1011.75
2019-03-01T10:31:59.281Z,1011.79
2019-03-01T10:32:59.161Z,1011.78
2019-03-01T10:33:59.134Z,1011.76
2019-03-01T10:34:59.114Z,1011.78
2019-03-01T10:35:59.104Z,1011.82
2019-03-01T10:36:59.054Z,1011.83
2019-03-01T10:37:59.110Z,1011.86
2019-03-01T10:38:58.991Z,1011.84
2019-03-01T10:39:58.972Z,1011.85
2019-03-01T10:40:58.942Z,1011.87
2019-03-01T10:41:58.939Z,1011.87
2019-03-01T10:42:58.891Z,1011.85
2019-03-01T10:43:58.949Z,1011.90
2019-03-01T10:44:58.860Z,1011.88
2019-03-01T10:45:58.809Z,1011.88
2019-03-01T10:46:59.611Z,1011.95
2019-03-01T10:47:58.754Z,1011.95
2019-03-01T10:48:58.779Z,1011.97
2019-03-01T10:49:58.700Z,1011.93
2019-03-01T10:50:58.671Z,1011.96
2019-03-01T10:51:58.700Z,1011.98
2019-03-01T10:52:58.632Z,1011.97
2019-03-01T10:53:58.610Z,1012.02
2019-03-01T10:54:58.568Z,1012.01
2019-03-01T10:55:58.539Z,1012.01
2019-03-01T10:56:58.521Z,1012.00
2019-03-01T10:57:58.541Z,1011.99
2019-03-01T10:58:58.544Z,1011.97
2019-03-01T10:59:58.450Z,1011.94
2019-03-01T11:00:58.402Z,1011.98
2019-03-01T11:01:58.481Z,1011.92
2019-03-01T11:02:58.369Z,1011.94
2019-03-01T11:03:58.381Z,1011.96
2019-03-01T11:04:58.292Z,1012.00
2019-03-01T11:05:58.407Z,1011.99
2019-03-01T11:06:58.298Z,1012.02
2019-03-01T11:07:58.210Z,1012.03
2019-03-01T11:08:58.210Z,1012.05
2019-03-01T11:09:58.150Z,1012.06
2019-03-01T11:10:58.230Z,1012.06
2019-03-01T11:11:58.129Z,1012.08
2019-03-01T11:12:58.078Z,1012.11
2019-03-01T11:13:58.139Z,1012.09
2019-03-01T11:14:58.033Z,1012.12
2019-03-01T11:15:58.050Z,1012.13
2019-03-01T11:16:57.969Z,1012.11
2019-03-01T11:17:57.944Z,1012.15
2019-03-01T11:18:57.910Z,1012.11
2019-03-01T11:19:57.979Z,1012.12
2019-03-01T11:20:57.858Z,1012.17
2019-03-01T11:21:57.888Z,1012.14
2019-03-01T11:22:57.900Z,1012.19
2019-03-01T11:23:57.781Z,1012.20
2019-03-01T11:24:57.818Z,1012.18
2019-03-01T11:25:57.719Z,1012.19
2019-03-01T11:26:57.719Z,1012.18
2019-03-01T11:27:57.669Z,1012.21
2019-03-01T11:28:57.649Z,1012.24
2019-03-01T11:29:57.643Z,1012.23
2019-03-01T11:30:57.589Z,1012.23
2019-03-01T11:31:57.658Z,1012.24
2019-03-01T11:32:57.545Z,1012.21
2019-03-01T11:33:57.522Z,1012.26
2019-03-01T11:36:04.821Z,1012.24
2019-03-01T11:38:01.554Z,1012.28
2019-03-01T11:39:01.525Z,1012.33
2019-03-01T11:40:01.421Z,1012.26
2019-03-01T11:41:01.429Z,1012.39
2019-03-01T11:42:01.377Z,1012.37
2019-03-01T11:43:01.443Z,1012.38
2019-03-01T11:44:01.340Z,1012.43
2019-03-01T11:45:01.294Z,1012.39
2019-03-01T11:46:01.360Z,1012.39
2019-03-01T11:47:01.240Z,1012.40
2019-03-01T11:48:01.341Z,1012.37
2019-03-01T11:49:01.181Z,1012.39
2019-03-01T11:50:01.150Z,1012.40
2019-03-01T11:51:01.131Z,1012.42
2019-03-01T11:52:01.273Z,1012.44
2019-03-01T11:53:01.071Z,1012.42
2019-03-01T11:54:01.180Z,1012.42
2019-03-01T11:55:01.025Z,1012.43
2019-03-01T11:56:00.994Z,1012.46
2019-03-01T11:57:01.103Z,1012.46
2019-03-01T11:58:00.940Z,1012.44
2019-03-01T11:59:01.015Z,1012.45
2019-03-01T12:00:00.889Z,1012.46
2019-03-01T12:01:00.860Z,1012.44
2019-03-01T12:02:00.835Z,1012.41
2019-03-01T12:03:00.932Z,1012.47
2019-03-01T12:04:00.773Z,1012.47
2019-03-01T12:05:01.871Z,1012.48
2019-03-01T12:06:00.721Z,1012.48
2019-03-01T12:07:00.701Z,1012.51
2019-03-01T12:08:00.670Z,1012.48